createdAt,value
2018-12-07T00:01:39.002Z,13.61
2018-12-07T00:04:09.105Z,13.61
2018-12-07T00:06:39.982Z,13.63
2018-12-07T00:09:09.898Z,13.67
2018-12-07T00:11:39.858Z,13.74
2018-12-07T00:14:09.860Z,13.82
2018-12-07T00:16:39.788Z,13.76
2018-12-07T00:19:09.861Z,13.70
2018-12-07T00:21:39.957Z,13.75
2018-12-07T00:24:10.034Z,13.81
2018-12-07T00:26:40.346Z,13.73
2018-12-07T00:29:10.269Z,13.72
2018-12-07T00:31:40.367Z,13.68
2018-12-07T00:34:10.370Z,13.69
2018-12-07T00:36:40.394Z,13.72
2018-12-07T00:39:10.393Z,13.79
2018-12-07T00:41:40.432Z,13.80
2018-12-07T00:44:10.364Z,13.78
2018-12-07T00:46:40.368Z,13.78
2018-12-07T00:49:10.297Z,13.79
2018-12-07T00:51:40.394Z,13.74
2018-12-07T00:54:10.314Z,13.73
2018-12-07T00:56:40.255Z,13.74
2018-12-07T00:59:10.181Z,13.78
2018-12-07T01:01:40.193Z,13.76
2018-12-07T01:04:10.277Z,13.76
2018-12-07T01:06:40.274Z,13.83
2018-12-07T01:09:10.218Z,13.82
2018-12-07T01:11:41.101Z,13.88
2018-12-07T01:14:11.141Z,13.82
2018-12-07T01:16:41.157Z,13.96
2018-12-07T01:19:11.445Z,13.87
2018-12-07T01:21:41.371Z,13.85
2018-12-07T01:24:11.322Z,13.86
2018-12-07T01:26:41.248Z,13.82
2018-12-07T01:29:11.341Z,13.83
2018-12-07T01:31:41.270Z,13.97
2018-12-07T01:34:11.277Z,13.88
2018-12-07T01:36:41.297Z,13.82
2018-12-07T01:42:17.584Z,13.72
2018-12-07T01:50:54.177Z,13.74
2018-12-07T01:53:24.277Z,13.84
2018-12-07T01:55:54.181Z,13.76
2018-12-07T01:58:24.117Z,13.82
2018-12-07T02:00:54.097Z,13.80
2018-12-07T02:03:24.194Z,13.80
2018-12-07T02:05:54.185Z,13.75
2018-12-07T02:08:24.114Z,13.84
2018-12-07T02:10:54.176Z,13.82
2018-12-07T02:13:24.176Z,13.86
2018-12-07T02:15:54.120Z,13.88
2018-12-07T02:18:24.066Z,13.95
2018-12-07T02:20:54.125Z,13.91
2018-12-07T02:23:24.278Z,13.93
2018-12-07T02:25:54.184Z,13.95
2018-12-07T02:28:24.117Z,13.95
2018-12-07T02:30:54.086Z,14.00
2018-12-07T02:33:24.013Z,13.93
2018-12-07T02:35:53.933Z,13.97
2018-12-07T02:38:23.888Z,14.01
2018-12-07T02:41:00.081Z,13.91
2018-12-07T02:43:30.015Z,13.93
2018-12-07T02:45:59.916Z,13.94
2018-12-07T02:48:29.848Z,14.00
2018-12-07T02:50:59.781Z,14.01
2018-12-07T02:53:29.756Z,13.98
2018-12-07T02:55:59.698Z,14.07
2018-12-07T02:58:29.807Z,14.15
2018-12-07T03:00:59.973Z,14.06
2018-12-07T03:03:29.886Z,14.07
2018-12-07T03:05:59.816Z,14.10
2018-12-07T03:08:29.728Z,14.03
2018-12-07T03:10:59.709Z,14.01
2018-12-07T03:13:29.701Z,14.06
2018-12-07T03:15:59.734Z,14.10
2018-12-07T03:18:32.965Z,14.11
2018-12-07T03:21:02.970Z,14.14
2018-12-07T03:23:32.897Z,14.13
2018-12-07T03:26:02.886Z,14.12
2018-12-07T03:28:32.788Z,14.14
2018-12-07T03:31:02.722Z,14.10
2018-12-07T03:33:32.695Z,14.15
2018-12-07T03:36:02.877Z,14.16
2018-12-07T03:38:32.806Z,14.10
2018-12-07T03:41:02.933Z,14.05
2018-12-07T03:43:33.150Z,14.02
2018-12-07T03:46:03.257Z,14.17
2018-12-07T03:48:33.327Z,14.16
2018-12-07T03:51:03.271Z,14.07
2018-12-07T03:53:33.273Z,14.10
2018-12-07T03:56:03.285Z,14.01
2018-12-07T03:58:33.269Z,14.10
2018-12-07T04:01:03.269Z,14.14
2018-12-07T04:03:33.469Z,14.12
2018-12-07T04:06:03.429Z,14.11
2018-12-07T04:08:33.450Z,14.12
2018-12-07T04:11:03.416Z,14.12
2018-12-07T04:13:33.358Z,14.19
2018-12-07T04:16:05.031Z,14.11
2018-12-07T04:18:35.102Z,14.15
2018-12-07T04:21:05.118Z,14.11
2018-12-07T04:23:35.219Z,14.16
2018-12-07T04:26:05.521Z,14.09
2018-12-07T04:28:37.477Z,14.12
2018-12-07T04:31:07.600Z,14.16
2018-12-07T04:33:37.542Z,14.17
2018-12-07T04:36:07.888Z,14.18
2018-12-07T04:38:37.941Z,14.15
2018-12-07T04:41:07.852Z,14.17
2018-12-07T04:43:37.805Z,14.06
2018-12-07T04:46:09.701Z,14.07
2018-12-07T04:48:39.631Z,14.15
2018-12-07T04:51:09.606Z,14.11
2018-12-07T04:53:39.739Z,14.22
2018-12-07T04:56:09.773Z,14.12
2018-12-07T04:58:39.717Z,14.17
2018-12-07T05:01:09.910Z,14.14
2018-12-07T05:03:39.891Z,14.12
2018-12-07T05:06:09.870Z,14.14
2018-12-07T05:08:39.998Z,14.25
2018-12-07T05:11:09.946Z,14.11
2018-12-07T05:13:39.941Z,14.14
2018-12-07T05:16:09.861Z,14.15
2018-12-07T05:18:40.052Z,14.12
2018-12-07T05:21:10.053Z,14.16
2018-12-07T05:23:39.977Z,14.11
2018-12-07T05:26:09.937Z,14.12
2018-12-07T05:28:39.927Z,14.01
2018-12-07T05:31:09.889Z,14.05
2018-12-07T05:33:39.866Z,14.08
2018-12-07T05:36:09.772Z,14.15
2018-12-07T05:38:40.954Z,14.09
2018-12-07T05:41:10.900Z,14.14
2018-12-07T05:43:57.327Z,14.15
2018-12-07T05:46:29.358Z,14.06
2018-12-07T05:48:59.433Z,14.08
2018-12-07T05:51:29.346Z,14.09
2018-12-07T05:53:59.369Z,14.18
2018-12-07T05:56:29.353Z,14.16
2018-12-07T05:58:59.326Z,14.15
2018-12-07T06:01:29.313Z,14.23
2018-12-07T06:03:59.502Z,14.21
2018-12-07T06:06:29.509Z,14.19
2018-12-07T06:08:59.433Z,14.22
2018-12-07T06:11:29.436Z,14.24
2018-12-07T06:13:59.337Z,14.26
2018-12-07T06:16:29.312Z,14.18
2018-12-07T06:18:59.313Z,14.33
2018-12-07T06:21:29.280Z,14.24
2018-12-07T06:23:59.223Z,14.19
2018-12-07T06:26:29.281Z,14.13
2018-12-07T06:28:59.294Z,14.17
2018-12-07T06:31:29.664Z,14.19
2018-12-07T06:33:59.652Z,14.17
2018-12-07T06:36:29.886Z,14.23
2018-12-07T06:38:59.817Z,14.25
2018-12-07T06:41:30.008Z,14.18
2018-12-07T06:44:00.145Z,14.27
2018-12-07T06:46:30.389Z,14.25
2018-12-07T06:49:10.884Z,14.21
2018-12-07T06:51:42.620Z,14.22
2018-12-07T06:54:12.717Z,14.23
2018-12-07T06:56:42.636Z,14.27
2018-12-07T06:59:12.582Z,14.28
2018-12-07T07:01:42.679Z,14.18
2018-12-07T07:04:12.613Z,14.10
2018-12-07T07:06:42.634Z,14.13
2018-12-07T07:09:12.556Z,14.21
2018-12-07T07:11:42.602Z,14.16
2018-12-07T07:14:12.537Z,14.12
2018-12-07T07:16:42.455Z,14.09
2018-12-07T07:19:12.489Z,14.12
2018-12-07T07:21:42.494Z,14.13
2018-12-07T07:24:12.435Z,14.14
2018-12-07T07:26:42.340Z,14.14
2018-12-07T07:29:12.280Z,14.19
2018-12-07T07:31:43.639Z,14.12
2018-12-07T07:34:13.859Z,14.08
2018-12-07T07:36:43.855Z,14.15
2018-12-07T07:39:13.801Z,14.01
2018-12-07T07:41:43.796Z,14.02
2018-12-07T07:44:14.749Z,14.03
2018-12-07T07:46:45.393Z,14.04
2018-12-07T07:49:15.347Z,14.01
2018-12-07T07:51:45.356Z,13.96
2018-12-07T07:54:15.511Z,13.98
2018-12-07T07:56:45.470Z,14.01
2018-12-07T07:59:15.698Z,13.84
2018-12-07T08:01:45.744Z,13.95
2018-12-07T08:07:01.147Z,13.90
2018-12-07T08:09:32.334Z,13.95
2018-12-07T08:12:02.238Z,13.98
2018-12-07T08:14:32.341Z,13.90
2018-12-07T08:17:02.305Z,13.96
2018-12-07T08:19:32.300Z,13.87
2018-12-07T08:22:02.960Z,14.01
2018-12-07T08:24:33.040Z,13.97
2018-12-07T08:27:03.073Z,14.05
2018-12-07T08:29:33.070Z,13.91
2018-12-07T08:32:03.082Z,13.90
2018-12-07T08:34:33.078Z,13.96
2018-12-07T08:37:02.984Z,13.88
2018-12-07T08:39:33.003Z,14.00
2018-12-07T08:42:06.685Z,14.03
2018-12-07T08:44:34.988Z,13.95
2018-12-07T08:47:05.113Z,14.02
2018-12-07T08:49:40.362Z,14.06
2018-12-07T08:52:10.460Z,14.06
2018-12-07T08:54:40.472Z,14.04
2018-12-07T08:57:10.523Z,13.90
2018-12-07T08:59:40.493Z,13.83
2018-12-07T09:02:10.648Z,13.81
2018-12-07T09:04:40.576Z,13.98
2018-12-07T09:07:10.748Z,13.90
2018-12-07T09:09:40.749Z,14.04
2018-12-07T09:12:10.741Z,13.99
2018-12-07T09:14:40.828Z,13.91
2018-12-07T09:17:10.742Z,13.89
2018-12-07T09:19:40.672Z,13.95
2018-12-07T09:22:10.652Z,13.77
2018-12-07T09:24:40.584Z,13.88
2018-12-07T09:29:56.012Z,14.00
2018-12-07T09:32:25.952Z,14.02
2018-12-07T09:34:55.941Z,14.02
2018-12-07T09:37:26.906Z,14.09
2018-12-07T09:39:56.908Z,14.08
2018-12-07T09:42:26.977Z,13.92
2018-12-07T09:44:56.929Z,13.95
2018-12-07T09:47:26.840Z,14.09
2018-12-07T09:49:56.897Z,14.04
2018-12-07T09:52:26.896Z,14.02
2018-12-07T09:54:56.825Z,14.00
2018-12-07T09:57:26.738Z,14.03
2018-12-07T09:59:56.660Z,14.06
2018-12-07T10:02:26.635Z,13.99
2018-12-07T10:04:56.638Z,13.94
2018-12-07T10:07:26.600Z,14.04
2018-12-07T10:09:56.588Z,13.94
2018-12-07T10:12:26.557Z,14.00
2018-12-07T10:14:56.467Z,14.11
2018-12-07T10:17:26.392Z,14.10
2018-12-07T10:19:56.381Z,14.27
2018-12-07T10:22:26.394Z,14.16
2018-12-07T10:24:56.372Z,14.03
2018-12-07T10:27:26.405Z,14.10
2018-12-07T10:29:56.363Z,14.17
2018-12-07T10:32:26.304Z,14.25
2018-12-07T10:34:56.212Z,14.16
2018-12-07T10:37:27.508Z,14.15
2018-12-07T10:39:57.419Z,14.10
2018-12-07T10:42:27.333Z,14.11
2018-12-07T10:44:57.418Z,14.03
2018-12-07T10:47:27.493Z,14.09
2018-12-07T10:49:57.412Z,14.14
2018-12-07T10:52:27.338Z,14.28
2018-12-07T10:54:57.249Z,14.29
2018-12-07T10:57:27.164Z,14.37
2018-12-07T10:59:57.090Z,14.37
2018-12-07T11:02:32.160Z,14.44
2018-12-07T11:05:07.278Z,14.46
2018-12-07T11:07:42.492Z,14.53
2018-12-07T11:10:17.753Z,14.45
2018-12-07T11:13:53.664Z,14.50
2018-12-07T11:16:28.892Z,14.39
2018-12-07T11:19:04.105Z,14.42
2018-12-07T11:21:40.476Z,14.45
2018-12-07T11:24:15.856Z,14.44
2018-12-07T11:26:51.111Z,14.53
2018-12-07T11:29:26.398Z,14.48
2018-12-07T11:32:01.626Z,14.45
2018-12-07T11:37:22.833Z,14.31
2018-12-07T11:39:52.738Z,14.49
2018-12-07T11:42:24.608Z,14.52
2018-12-07T11:44:54.504Z,14.41
2018-12-07T11:47:24.497Z,14.45
2018-12-07T11:49:54.433Z,14.48
2018-12-07T11:52:24.336Z,14.43
2018-12-07T11:54:54.252Z,14.41
2018-12-07T11:57:24.309Z,14.45
2018-12-07T11:59:54.207Z,14.40
2018-12-07T12:02:26.447Z,14.48
2018-12-07T12:04:56.065Z,14.41
2018-12-07T12:07:25.980Z,14.34
2018-12-07T12:09:55.888Z,14.33
2018-12-07T12:12:27.805Z,14.46
2018-12-07T12:14:57.718Z,14.37
2018-12-07T12:17:27.645Z,14.41
2018-12-07T12:19:57.657Z,14.42
2018-12-07T12:22:27.637Z,14.32
2018-12-07T12:24:57.557Z,14.33
2018-12-07T12:27:27.469Z,14.29
2018-12-07T12:29:57.444Z,14.42
2018-12-07T12:32:27.437Z,14.48
2018-12-07T12:34:57.418Z,14.50
2018-12-07T12:37:28.362Z,14.47
2018-12-07T12:39:58.476Z,14.55
2018-12-07T12:42:28.472Z,14.55
2018-12-07T12:44:58.558Z,14.58
2018-12-07T12:47:28.694Z,14.60
2018-12-07T12:49:58.660Z,14.56
2018-12-07T12:52:28.572Z,14.58
2018-12-07T12:54:58.510Z,14.67
2018-12-07T12:57:28.464Z,14.52
2018-12-07T12:59:58.990Z,14.51
2018-12-07T13:02:29.049Z,14.56
2018-12-07T13:04:58.997Z,14.53
2018-12-07T13:07:28.916Z,14.36
2018-12-07T13:09:58.901Z,14.43
2018-12-07T13:12:28.872Z,14.42
2018-12-07T13:17:36.788Z,14.41
2018-12-07T13:20:08.780Z,14.28
2018-12-07T13:22:40.212Z,14.28
2018-12-07T13:25:10.189Z,14.24
2018-12-07T13:27:40.099Z,14.12
2018-12-07T13:30:10.149Z,14.11
2018-12-07T13:32:40.137Z,14.09
2018-12-07T13:37:55.708Z,14.12
2018-12-07T13:40:25.647Z,14.12
2018-12-07T13:45:34.951Z,14.15
2018-12-07T13:48:06.918Z,14.18
2018-12-07T13:50:41.885Z,14.20
2018-12-07T13:53:13.162Z,14.07
2018-12-07T13:55:43.252Z,14.11
2018-12-07T13:58:15.201Z,13.96
2018-12-07T14:00:45.308Z,14.00
2018-12-07T14:03:15.323Z,14.04
2018-12-07T14:05:45.471Z,14.05
2018-12-07T14:08:15.490Z,14.05
2018-12-07T14:10:45.785Z,14.03
2018-12-07T14:13:15.949Z,14.01
2018-12-07T14:15:46.127Z,13.95
2018-12-07T14:18:16.126Z,13.97
2018-12-07T14:20:46.101Z,13.97
2018-12-07T14:23:16.393Z,14.07
2018-12-07T14:25:46.512Z,14.11
2018-12-07T14:28:16.821Z,14.02
2018-12-07T14:30:46.752Z,13.98
2018-12-07T14:33:16.877Z,13.81
2018-12-07T14:35:46.914Z,13.79
2018-12-07T14:38:18.165Z,13.92
2018-12-07T14:40:48.114Z,13.78
2018-12-07T14:43:19.157Z,13.84
2018-12-07T14:45:49.187Z,13.70
2018-12-07T14:48:19.210Z,13.77
2018-12-07T14:50:49.253Z,13.77
2018-12-07T14:53:19.459Z,13.77
2018-12-07T14:55:49.688Z,13.81
2018-12-07T14:58:19.724Z,13.72
2018-12-07T15:00:49.933Z,13.91
2018-12-07T15:03:19.983Z,13.91
2018-12-07T15:05:51.724Z,13.78
2018-12-07T15:08:21.698Z,13.68
2018-12-07T15:10:51.685Z,13.69
2018-12-07T15:13:21.783Z,13.60
2018-12-07T15:15:51.974Z,13.64
2018-12-07T15:18:22.135Z,13.53
2018-12-07T15:20:52.179Z,13.48
2018-12-07T15:23:22.129Z,13.56
2018-12-07T15:25:56.640Z,13.71
2018-12-07T15:28:26.762Z,13.58
2018-12-07T15:30:56.807Z,13.52
2018-12-07T15:33:27.119Z,13.40
2018-12-07T15:35:57.185Z,13.31
2018-12-07T15:38:27.195Z,13.45
2018-12-07T15:40:57.361Z,13.50
2018-12-07T15:43:27.438Z,13.46
2018-12-07T15:45:57.409Z,13.32
2018-12-07T15:48:27.539Z,13.40
2018-12-07T15:50:57.512Z,13.49
2018-12-07T15:53:27.619Z,13.43
2018-12-07T15:55:57.743Z,13.23
2018-12-07T15:58:27.809Z,13.40
2018-12-07T16:00:58.069Z,13.27
2018-12-07T16:03:28.196Z,13.25
2018-12-07T16:05:58.224Z,13.33
2018-12-07T16:08:28.299Z,13.38
2018-12-07T16:10:58.481Z,13.22
2018-12-07T16:13:28.689Z,13.22
2018-12-07T16:15:58.639Z,13.31
2018-12-07T16:18:28.671Z,13.38
2018-12-07T16:20:58.860Z,13.44
2018-12-07T16:23:28.958Z,13.48
2018-12-07T16:25:59.194Z,13.44
2018-12-07T16:28:29.281Z,13.33
2018-12-07T16:30:59.617Z,13.39
2018-12-07T16:33:29.985Z,13.44
2018-12-07T16:36:00.064Z,13.45
2018-12-07T16:38:30.109Z,13.38
2018-12-07T16:41:00.143Z,13.39
2018-12-07T16:43:30.071Z,13.39
2018-12-07T16:46:00.077Z,13.37
2018-12-07T16:48:30.269Z,13.49
2018-12-07T16:51:00.449Z,13.46
2018-12-07T16:53:31.169Z,13.39
2018-12-07T16:56:01.269Z,13.17
2018-12-07T16:58:31.281Z,13.46
2018-12-07T17:01:01.214Z,13.50
2018-12-07T17:03:31.317Z,13.41
2018-12-07T17:06:01.329Z,13.42
2018-12-07T17:08:31.620Z,13.47
2018-12-07T17:11:01.992Z,13.56
2018-12-07T17:13:32.035Z,13.28
2018-12-07T17:16:02.258Z,13.42
2018-12-07T17:18:32.339Z,13.52
2018-12-07T17:21:02.623Z,13.43
2018-12-07T17:23:32.602Z,13.30
2018-12-07T17:26:02.728Z,13.49
2018-12-07T17:28:33.695Z,13.41
2018-12-07T17:31:03.980Z,13.52
2018-12-07T17:33:34.018Z,13.46
2018-12-07T17:36:06.663Z,13.56
2018-12-07T17:38:36.782Z,13.62
2018-12-07T17:41:06.785Z,13.46
2018-12-07T17:43:36.764Z,13.35
2018-12-07T17:46:06.793Z,13.27
2018-12-07T17:48:36.977Z,13.26
2018-12-07T17:51:07.013Z,13.29
2018-12-07T17:53:37.344Z,13.34
2018-12-07T17:56:07.551Z,13.38
2018-12-07T17:58:37.789Z,13.38
2018-12-07T18:01:07.989Z,13.16
2018-12-07T18:03:39.905Z,13.24
2018-12-07T18:06:09.897Z,13.12
2018-12-07T18:08:40.118Z,13.15
2018-12-07T18:11:10.395Z,13.11
2018-12-07T18:16:25.651Z,13.00
2018-12-07T18:18:55.672Z,13.11
2018-12-07T18:21:25.681Z,13.22
2018-12-07T18:23:55.948Z,13.16
2018-12-07T18:26:26.129Z,13.18
2018-12-07T18:28:56.469Z,13.09
2018-12-07T18:31:26.588Z,13.17
2018-12-07T18:33:56.711Z,13.04
2018-12-07T18:36:26.892Z,13.14
2018-12-07T18:38:56.861Z,13.16
2018-12-07T18:41:27.116Z,13.10
2018-12-07T18:43:57.242Z,13.03
2018-12-07T18:46:27.204Z,13.05
2018-12-07T18:48:57.130Z,12.93
2018-12-07T18:51:27.198Z,12.87
2018-12-07T18:53:57.393Z,12.95
2018-12-07T18:56:27.547Z,12.86
2018-12-07T18:58:57.521Z,12.93
2018-12-07T19:01:27.669Z,12.74
2018-12-07T19:03:57.846Z,12.72
2018-12-07T19:06:28.117Z,12.98
2018-12-07T19:08:58.074Z,12.83
2018-12-07T19:11:28.112Z,12.69
2018-12-07T19:13:58.124Z,12.70
2018-12-07T19:16:28.276Z,12.84
2018-12-07T19:18:58.310Z,12.72
2018-12-07T19:21:28.579Z,12.75
2018-12-07T19:23:59.994Z,12.71
2018-12-07T19:26:30.069Z,12.71
2018-12-07T19:29:00.051Z,12.58
2018-12-07T19:31:30.230Z,12.53
2018-12-07T19:34:00.277Z,12.40
2018-12-07T19:36:30.296Z,12.54
2018-12-07T19:39:00.314Z,12.53
2018-12-07T19:41:30.264Z,12.57
2018-12-07T19:44:00.448Z,12.59
2018-12-07T19:46:30.479Z,12.71
2018-12-07T19:49:00.564Z,12.59
2018-12-07T19:51:30.575Z,12.63
2018-12-07T19:54:00.704Z,12.55
2018-12-07T19:56:30.912Z,12.61
2018-12-07T19:59:00.964Z,12.79
2018-12-07T20:01:31.118Z,12.68
2018-12-07T20:04:01.319Z,12.65
2018-12-07T20:06:31.401Z,12.59
2018-12-07T20:09:01.352Z,12.57
2018-12-07T20:11:33.130Z,12.30
2018-12-07T20:14:03.702Z,12.60
2018-12-07T20:16:34.143Z,12.57
2018-12-07T20:19:04.510Z,12.17
2018-12-07T20:21:34.734Z,11.86
2018-12-07T20:24:04.862Z,11.61
2018-12-07T20:26:37.459Z,11.32
2018-12-07T20:29:07.775Z,11.00
2018-12-07T20:31:37.873Z,10.87
2018-12-07T20:34:07.772Z,10.76
2018-12-07T20:36:37.759Z,10.64
2018-12-07T20:39:08.524Z,10.76
2018-12-07T20:41:39.517Z,10.70
2018-12-07T20:44:09.585Z,10.47
2018-12-07T20:46:39.584Z,10.32
2018-12-07T20:49:09.695Z,10.35
2018-12-07T20:51:40.121Z,10.33
2018-12-07T20:54:10.155Z,10.51
2018-12-07T20:56:40.401Z,10.56
2018-12-07T20:59:10.640Z,10.15
2018-12-07T21:01:40.648Z,10.30
2018-12-07T21:04:29.887Z,10.32
2018-12-07T21:09:27.704Z,10.36
2018-12-07T21:12:17.561Z,10.15
2018-12-07T21:14:51.694Z,10.20
2018-12-07T21:17:29.786Z,10.30
2018-12-07T21:20:30.894Z,10.22
2018-12-07T21:23:00.823Z,10.21
2018-12-07T21:25:31.059Z,10.28
2018-12-07T21:28:01.338Z,10.34
2018-12-07T21:31:03.493Z,10.35
2018-12-07T21:33:47.893Z,10.32
2018-12-07T21:40:29.257Z,10.33
2018-12-07T21:42:59.255Z,10.33
2018-12-07T21:45:29.746Z,10.23
2018-12-07T21:48:22.484Z,10.28
2018-12-07T21:51:20.645Z,10.32
2018-12-07T21:53:51.043Z,10.42
2018-12-07T21:59:09.922Z,10.61
2018-12-07T22:01:40.040Z,10.63
2018-12-07T22:04:10.130Z,10.51
2018-12-07T22:06:40.418Z,10.59
2018-12-07T22:09:10.955Z,10.68
2018-12-07T22:11:43.055Z,10.39
2018-12-07T22:14:13.138Z,10.44
2018-12-07T22:16:43.604Z,10.62
2018-12-07T22:19:13.861Z,10.72
2018-12-07T22:21:44.242Z,10.79
2018-12-07T22:24:14.321Z,10.85
2018-12-07T22:26:44.237Z,10.69
2018-12-07T22:29:14.307Z,10.44
2018-12-07T22:31:44.497Z,10.04
2018-12-07T22:34:14.573Z,9.93
2018-12-07T22:36:44.666Z,10.11
2018-12-07T22:39:14.625Z,10.21
2018-12-07T22:41:44.616Z,10.41
2018-12-07T22:44:14.558Z,10.31
2018-12-07T22:46:44.709Z,10.28
2018-12-07T22:49:14.685Z,10.18
2018-12-07T22:51:44.665Z,10.11
2018-12-07T22:54:14.676Z,10.17
2018-12-07T22:56:44.614Z,10.16
2018-12-07T22:59:14.614Z,10.14
2018-12-07T23:01:44.679Z,10.27
2018-12-07T23:04:14.688Z,10.39
2018-12-07T23:06:44.667Z,10.57
2018-12-07T23:09:14.700Z,10.40
2018-12-07T23:11:44.669Z,10.40
2018-12-07T23:14:14.716Z,10.26
2018-12-07T23:16:44.722Z,10.36
2018-12-07T23:19:14.761Z,10.13
2018-12-07T23:21:44.738Z,10.12
2018-12-07T23:24:14.701Z,10.20
2018-12-07T23:26:44.605Z,10.16
2018-12-07T23:29:23.056Z,9.99
2018-12-07T23:31:53.187Z,10.02
2018-12-07T23:34:23.168Z,9.88
2018-12-07T23:36:53.152Z,9.87
2018-12-07T23:39:23.092Z,9.94
2018-12-07T23:41:53.029Z,9.98
2018-12-07T23:44:23.533Z,9.77
2018-12-07T23:46:54.985Z,9.89
2018-12-07T23:49:25.073Z,9.85
2018-12-07T23:51:55.104Z,9.90
2018-12-07T23:54:25.025Z,9.99
2018-12-07T23:56:55.000Z,10.07
2018-12-07T23:59:24.921Z,10.02
